sensor_id;sensor_type;location;lat;lon;timestamp;temperature;humidity
21635;DHT22;10979;48.306;9.830;2022-10-26T00:02:24;9.70;99.90
21635;DHT22;10979;48.306;9.830;2022-10-26T00:04:50;9.70;99.90
21635;DHT22;10979;48.306;9.830;2022-10-26T00:07:15;9.80;99.90
21635;DHT22;10979;48.306;9.830;2022-10-26T00:09:41;9.80;99.90
21635;DHT22;10979;48.306;9.830;2022-10-26T00:12:06;9.70;99.90
21635;DHT22;10979;48.306;9.830;2022-10-26T00:14:32;9.70;99.90
21635;DHT22;10979;48.306;9.830;2022-10-26T00:16:57;9.80;99.90
21635;DHT22;10979;48.306;9.830;2022-10-26T00:19:23;9.70;99.90
21635;DHT22;10979;48.306;9.830;2022-10-26T00:21:49;9.70;99.90
21635;DHT22;10979;48.306;9.830;2022-10-26T00:24:14;9.80;99.90
21635;DHT22;10979;48.306;9.830;2022-10-26T00:26:40;9.80;99.90
21635;DHT22;10979;48.306;9.830;2022-10-26T00:29:06;9.80;99.90
21635;DHT22;10979;48.306;9.830;2022-10-26T00:31:32;9.80;99.90
21635;DHT22;10979;48.306;9.830;2022-10-26T00:33:58;9.80;99.90
21635;DHT22;10979;48.306;9.830;2022-10-26T00:36:25;9.80;99.90
21635;DHT22;10979;48.306;9.830;2022-10-26T00:38:52;9.90;99.90
21635;DHT22;10979;48.306;9.830;2022-10-26T00:41:22;9.90;99.90
21635;DHT22;10979;48.306;9.830;2022-10-26T00:43:48;9.90;99.90
21635;DHT22;10979;48.306;9.830;2022-10-26T00:46:19;9.90;99.90
21635;DHT22;10979;48.306;9.830;2022-10-26T00:48:52;9.90;99.90
21635;DHT22;10979;48.306;9.830;2022-10-26T00:51:22;9.90;99.90
21635;DHT22;10979;48.306;9.830;2022-10-26T00:53:49;10.00;99.90
21635;DHT22;10979;48.306;9.830;2022-10-26T00:56:15;10.00;99.90
21635;DHT22;10979;48.306;9.830;2022-10-26T00:58:42;10.00;99.90
21635;DHT22;10979;48.306;9.830;2022-10-26T01:01:08;10.00;99.90
21635;DHT22;10979;48.306;9.830;2022-10-26T01:03:35;10.00;99.90
21635;DHT22;10979;48.306;9.830;2022-10-26T01:06:02;10.00;99.90
21635;DHT22;10979;48.306;9.830;2022-10-26T01:08:28;10.00;99.90
21635;DHT22;10979;48.306;9.830;2022-10-26T01:10:56;10.00;99.90
21635;DHT22;10979;48.306;9.830;2022-10-26T01:13:24;10.00;99.90
21635;DHT22;10979;48.306;9.830;2022-10-26T01:25:00;10.10;99.90
21635;DHT22;10979;48.306;9.830;2022-10-26T01:41:07;10.10;99.90
21635;DHT22;10979;48.306;9.830;2022-10-26T01:43:41;10.10;99.90
21635;DHT22;10979;48.306;9.830;2022-10-26T01:46:08;10.10;99.90
21635;DHT22;10979;48.306;9.830;2022-10-26T01:48:36;10.10;99.90
21635;DHT22;10979;48.306;9.830;2022-10-26T01:51:03;10.10;99.90
21635;DHT22;10979;48.306;9.830;2022-10-26T01:53:30;10.00;99.90
21635;DHT22;10979;48.306;9.830;2022-10-26T01:55:56;10.00;99.90
21635;DHT22;10979;48.306;9.830;2022-10-26T02:07:29;9.90;99.90
21635;DHT22;10979;48.306;9.830;2022-10-26T02:11:03;9.80;99.90
21635;DHT22;10979;48.306;9.830;2022-10-26T02:13:28;9.80;99.90
21635;DHT22;10979;48.306;9.830;2022-10-26T02:16:13;9.80;99.90
21635;DHT22;10979;48.306;9.830;2022-10-26T02:19:01;9.80;99.90
21635;DHT22;10979;48.306;9.830;2022-10-26T02:21:40;9.80;99.90
21635;DHT22;10979;48.306;9.830;2022-10-26T02:24:10;9.80;99.90
21635;DHT22;10979;48.306;9.830;2022-10-26T02:26:39;9.70;99.90
21635;DHT22;10979;48.306;9.830;2022-10-26T02:29:08;9.80;99.90
21635;DHT22;10979;48.306;9.830;2022-10-26T02:31:36;9.80;99.90
21635;DHT22;10979;48.306;9.830;2022-10-26T02:34:06;9.80;99.90
21635;DHT22;10979;48.306;9.830;2022-10-26T02:36:35;9.80;99.90
21635;DHT22;10979;48.306;9.830;2022-10-26T02:39:03;9.70;99.90
21635;DHT22;10979;48.306;9.830;2022-10-26T02:41:31;9.80;99.90
21635;DHT22;10979;48.306;9.830;2022-10-26T02:44:24;9.80;99.90
21635;DHT22;10979;48.306;9.830;2022-10-26T02:46:50;9.70;99.90
21635;DHT22;10979;48.306;9.830;2022-10-26T02:49:16;9.70;99.90
21635;DHT22;10979;48.306;9.830;2022-10-26T02:51:52;9.60;99.90
21635;DHT22;10979;48.306;9.830;2022-10-26T02:54:36;9.60;99.90
21635;DHT22;10979;48.306;9.830;2022-10-26T02:57:08;9.50;99.90
21635;DHT22;10979;48.306;9.830;2022-10-26T02:59:37;9.40;99.90
21635;DHT22;10979;48.306;9.830;2022-10-26T03:02:06;9.50;99.90
21635;DHT22;10979;48.306;9.830;2022-10-26T03:04:32;9.50;99.90
21635;DHT22;10979;48.306;9.830;2022-10-26T03:06:58;9.50;99.90
21635;DHT22;10979;48.306;9.830;2022-10-26T03:09:24;9.50;99.90
21635;DHT22;10979;48.306;9.830;2022-10-26T03:11:50;9.60;99.90
21635;DHT22;10979;48.306;9.830;2022-10-26T03:14:16;9.60;99.90
21635;DHT22;10979;48.306;9.830;2022-10-26T03:16:41;9.60;99.90
21635;DHT22;10979;48.306;9.830;2022-10-26T03:19:07;9.60;99.90
21635;DHT22;10979;48.306;9.830;2022-10-26T03:21:32;9.70;99.90
21635;DHT22;10979;48.306;9.830;2022-10-26T03:23:58;9.70;99.90
21635;DHT22;10979;48.306;9.830;2022-10-26T03:26:24;9.70;99.90
21635;DHT22;10979;48.306;9.830;2022-10-26T03:28:49;9.70;99.90
21635;DHT22;10979;48.306;9.830;2022-10-26T03:31:15;9.80;99.90
21635;DHT22;10979;48.306;9.830;2022-10-26T03:33:40;9.80;99.90
21635;DHT22;10979;48.306;9.830;2022-10-26T03:36:07;9.90;99.90
21635;DHT22;10979;48.306;9.830;2022-10-26T03:38:32;9.90;99.90
21635;DHT22;10979;48.306;9.830;2022-10-26T03:40:58;9.90;99.90
21635;DHT22;10979;48.306;9.830;2022-10-26T03:43:24;9.90;99.90
21635;DHT22;10979;48.306;9.830;2022-10-26T03:45:49;9.90;99.90
21635;DHT22;10979;48.306;9.830;2022-10-26T03:48:15;9.90;99.90
21635;DHT22;10979;48.306;9.830;2022-10-26T03:50:40;10.00;99.90
21635;DHT22;10979;48.306;9.830;2022-10-26T03:53:07;10.00;99.90
21635;DHT22;10979;48.306;9.830;2022-10-26T03:55:32;10.10;99.90
21635;DHT22;10979;48.306;9.830;2022-10-26T03:57:58;10.10;99.90
21635;DHT22;10979;48.306;9.830;2022-10-26T04:00:23;10.10;99.90
21635;DHT22;10979;48.306;9.830;2022-10-26T04:02:57;10.10;99.90
21635;DHT22;10979;48.306;9.830;2022-10-26T04:05:24;10.10;99.90
21635;DHT22;10979;48.306;9.830;2022-10-26T04:07:58;10.10;99.90
21635;DHT22;10979;48.306;9.830;2022-10-26T04:10:25;10.20;99.90
21635;DHT22;10979;48.306;9.830;2022-10-26T04:12:52;10.10;99.90
21635;DHT22;10979;48.306;9.830;2022-10-26T04:15:18;10.20;99.90
21635;DHT22;10979;48.306;9.830;2022-10-26T04:17:44;10.20;99.90
21635;DHT22;10979;48.306;9.830;2022-10-26T04:20:09;10.20;99.90
21635;DHT22;10979;48.306;9.830;2022-10-26T04:22:35;10.20;99.90
21635;DHT22;10979;48.306;9.830;2022-10-26T04:25:02;10.20;99.90
21635;DHT22;10979;48.306;9.830;2022-10-26T04:27:28;10.20;99.90
21635;DHT22;10979;48.306;9.830;2022-10-26T04:29:53;10.20;99.90
21635;DHT22;10979;48.306;9.830;2022-10-26T04:32:19;10.20;99.90
21635;DHT22;10979;48.306;9.830;2022-10-26T04:34:44;10.20;99.90
21635;DHT22;10979;48.306;9.830;2022-10-26T04:37:10;10.20;99.90
21635;DHT22;10979;48.306;9.830;2022-10-26T04:39:36;10.20;99.90
21635;DHT22;10979;48.306;9.830;2022-10-26T04:42:01;10.20;99.90
21635;DHT22;10979;48.306;9.830;2022-10-26T04:44:27;10.10;99.90
21635;DHT22;10979;48.306;9.830;2022-10-26T04:46:53;10.10;99.90
21635;DHT22;10979;48.306;9.830;2022-10-26T04:49:18;10.10;99.90
21635;DHT22;10979;48.306;9.830;2022-10-26T04:51:44;10.10;99.90
21635;DHT22;10979;48.306;9.830;2022-10-26T04:54:09;10.10;99.90
21635;DHT22;10979;48.306;9.830;2022-10-26T04:56:35;10.10;99.90
21635;DHT22;10979;48.306;9.830;2022-10-26T04:59:00;10.10;99.90
21635;DHT22;10979;48.306;9.830;2022-10-26T05:01:26;10.00;99.90
21635;DHT22;10979;48.306;9.830;2022-10-26T05:03:52;10.00;99.90
21635;DHT22;10979;48.306;9.830;2022-10-26T05:06:18;10.00;99.90
21635;DHT22;10979;48.306;9.830;2022-10-26T05:08:44;10.10;99.90
21635;DHT22;10979;48.306;9.830;2022-10-26T05:11:10;10.00;99.90
21635;DHT22;10979;48.306;9.830;2022-10-26T05:13:35;10.10;99.90
21635;DHT22;10979;48.306;9.830;2022-10-26T05:16:01;10.10;99.90
21635;DHT22;10979;48.306;9.830;2022-10-26T05:18:29;10.00;99.90
21635;DHT22;10979;48.306;9.830;2022-10-26T05:20:55;10.00;99.90
21635;DHT22;10979;48.306;9.830;2022-10-26T05:23:21;9.90;99.90
21635;DHT22;10979;48.306;9.830;2022-10-26T05:25:47;9.90;99.90
21635;DHT22;10979;48.306;9.830;2022-10-26T05:28:14;9.90;99.90
21635;DHT22;10979;48.306;9.830;2022-10-26T05:30:41;10.00;99.90
21635;DHT22;10979;48.306;9.830;2022-10-26T05:33:09;10.10;99.90
21635;DHT22;10979;48.306;9.830;2022-10-26T05:35:35;10.00;99.90
21635;DHT22;10979;48.306;9.830;2022-10-26T05:38:12;10.00;99.90
21635;DHT22;10979;48.306;9.830;2022-10-26T05:40:49;10.00;99.90
21635;DHT22;10979;48.306;9.830;2022-10-26T05:43:15;10.00;99.90
21635;DHT22;10979;48.306;9.830;2022-10-26T05:45:41;10.00;99.90
21635;DHT22;10979;48.306;9.830;2022-10-26T05:48:07;10.00;99.90
21635;DHT22;10979;48.306;9.830;2022-10-26T05:50:32;10.00;99.90
21635;DHT22;10979;48.306;9.830;2022-10-26T05:52:58;10.00;99.90
21635;DHT22;10979;48.306;9.830;2022-10-26T05:55:24;10.00;99.90
21635;DHT22;10979;48.306;9.830;2022-10-26T05:57:49;10.00;99.90
21635;DHT22;10979;48.306;9.830;2022-10-26T06:00:18;10.00;99.90
21635;DHT22;10979;48.306;9.830;2022-10-26T06:05:18;9.90;99.90
21635;DHT22;10979;48.306;9.830;2022-10-26T06:07:45;9.90;99.90
21635;DHT22;10979;48.306;9.830;2022-10-26T06:10:11;10.00;99.90
21635;DHT22;10979;48.306;9.830;2022-10-26T06:12:37;10.00;99.90
21635;DHT22;10979;48.306;9.830;2022-10-26T06:15:04;10.00;99.90
21635;DHT22;10979;48.306;9.830;2022-10-26T06:17:51;10.00;99.90
21635;DHT22;10979;48.306;9.830;2022-10-26T06:20:47;10.00;99.90
21635;DHT22;10979;48.306;9.830;2022-10-26T06:23:45;10.00;99.90
21635;DHT22;10979;48.306;9.830;2022-10-26T06:26:26;9.90;99.90
21635;DHT22;10979;48.306;9.830;2022-10-26T06:29:21;9.90;99.90
21635;DHT22;10979;48.306;9.830;2022-10-26T06:31:49;9.80;99.90
21635;DHT22;10979;48.306;9.830;2022-10-26T06:34:24;9.80;99.90
21635;DHT22;10979;48.306;9.830;2022-10-26T06:36:51;9.80;99.90
21635;DHT22;10979;48.306;9.830;2022-10-26T06:39:17;9.80;99.90
21635;DHT22;10979;48.306;9.830;2022-10-26T06:41:44;9.90;99.90
21635;DHT22;10979;48.306;9.830;2022-10-26T06:44:14;10.00;99.90
21635;DHT22;10979;48.306;9.830;2022-10-26T06:47:05;10.10;99.90
21635;DHT22;10979;48.306;9.830;2022-10-26T06:49:39;10.30;99.90
21635;DHT22;10979;48.306;9.830;2022-10-26T06:52:36;10.50;99.90
21635;DHT22;10979;48.306;9.830;2022-10-26T06:55:12;11.40;99.90
21635;DHT22;10979;48.306;9.830;2022-10-26T06:57:40;13.00;99.90
21635;DHT22;10979;48.306;9.830;2022-10-26T07:00:15;12.90;99.90
21635;DHT22;10979;48.306;9.830;2022-10-26T07:02:43;13.10;99.90
21635;DHT22;10979;48.306;9.830;2022-10-26T07:05:09;12.90;99.90
21635;DHT22;10979;48.306;9.830;2022-10-26T07:07:40;12.50;99.90
21635;DHT22;10979;48.306;9.830;2022-10-26T07:10:06;12.00;99.90
21635;DHT22;10979;48.306;9.830;2022-10-26T07:12:32;11.50;99.90
21635;DHT22;10979;48.306;9.830;2022-10-26T07:14:58;11.30;99.90
21635;DHT22;10979;48.306;9.830;2022-10-26T07:17:24;11.40;99.90
21635;DHT22;10979;48.306;9.830;2022-10-26T07:19:53;11.80;99.90
21635;DHT22;10979;48.306;9.830;2022-10-26T07:22:18;11.80;99.90
21635;DHT22;10979;48.306;9.830;2022-10-26T07:24:44;11.80;99.90
21635;DHT22;10979;48.306;9.830;2022-10-26T07:27:09;11.90;99.90
21635;DHT22;10979;48.306;9.830;2022-10-26T07:29:35;11.90;99.90
21635;DHT22;10979;48.306;9.830;2022-10-26T07:32:01;12.00;99.90
21635;DHT22;10979;48.306;9.830;2022-10-26T07:34:26;12.10;99.90
21635;DHT22;10979;48.306;9.830;2022-10-26T07:36:52;12.00;99.90
21635;DHT22;10979;48.306;9.830;2022-10-26T07:39:17;11.80;99.90
21635;DHT22;10979;48.306;9.830;2022-10-26T07:41:44;11.80;99.90
21635;DHT22;10979;48.306;9.830;2022-10-26T07:44:10;11.70;99.90
21635;DHT22;10979;48.306;9.830;2022-10-26T07:46:36;11.80;99.90
21635;DHT22;10979;48.306;9.830;2022-10-26T07:49:02;12.00;99.90
21635;DHT22;10979;48.306;9.830;2022-10-26T07:51:27;12.30;99.90
21635;DHT22;10979;48.306;9.830;2022-10-26T07:53:53;12.70;99.90
21635;DHT22;10979;48.306;9.830;2022-10-26T07:56:18;13.50;99.90
21635;DHT22;10979;48.306;9.830;2022-10-26T07:58:44;13.40;99.90
21635;DHT22;10979;48.306;9.830;2022-10-26T08:01:12;13.00;99.90
21635;DHT22;10979;48.306;9.830;2022-10-26T08:03:38;14.60;99.90
21635;DHT22;10979;48.306;9.830;2022-10-26T08:06:03;14.90;99.90
21635;DHT22;10979;48.306;9.830;2022-10-26T08:08:30;16.10;99.90
21635;DHT22;10979;48.306;9.830;2022-10-26T08:10:56;16.00;99.90
21635;DHT22;10979;48.306;9.830;2022-10-26T08:13:22;14.90;99.90
21635;DHT22;10979;48.306;9.830;2022-10-26T08:15:47;14.20;99.90
21635;DHT22;10979;48.306;9.830;2022-10-26T08:18:13;16.20;99.90
21635;DHT22;10979;48.306;9.830;2022-10-26T08:20:38;17.70;99.90
21635;DHT22;10979;48.306;9.830;2022-10-26T08:23:04;15.70;99.90
21635;DHT22;10979;48.306;9.830;2022-10-26T08:25:33;15.10;99.90
21635;DHT22;10979;48.306;9.830;2022-10-26T08:28:02;15.30;99.90
21635;DHT22;10979;48.306;9.830;2022-10-26T08:30:29;15.60;99.90
21635;DHT22;10979;48.306;9.830;2022-10-26T08:33:08;15.30;99.90
21635;DHT22;10979;48.306;9.830;2022-10-26T08:35:34;14.90;99.90
21635;DHT22;10979;48.306;9.830;2022-10-26T08:38:00;14.70;99.90
21635;DHT22;10979;48.306;9.830;2022-10-26T08:40:29;14.70;99.90
21635;DHT22;10979;48.306;9.830;2022-10-26T08:43:44;14.60;99.90
21635;DHT22;10979;48.306;9.830;2022-10-26T08:45:58;14.70;99.90
21635;DHT22;10979;48.306;9.830;2022-10-26T08:48:34;14.70;99.90
21635;DHT22;10979;48.306;9.830;2022-10-26T08:51:08;14.60;99.90
21635;DHT22;10979;48.306;9.830;2022-10-26T08:53:39;14.70;99.90
21635;DHT22;10979;48.306;9.830;2022-10-26T08:59:04;14.80;99.90
21635;DHT22;10979;48.306;9.830;2022-10-26T09:01:32;15.10;99.90
21635;DHT22;10979;48.306;9.830;2022-10-26T09:04:01;15.10;99.90
21635;DHT22;10979;48.306;9.830;2022-10-26T09:06:42;15.30;99.90
21635;DHT22;10979;48.306;9.830;2022-10-26T09:09:15;15.40;99.90
21635;DHT22;10979;48.306;9.830;2022-10-26T09:20:27;15.70;99.90
21635;DHT22;10979;48.306;9.830;2022-10-26T09:25:47;16.10;99.90
21635;DHT22;10979;48.306;9.830;2022-10-26T09:28:17;16.60;99.90
21635;DHT22;10979;48.306;9.830;2022-10-26T09:30:46;16.70;99.90
21635;DHT22;10979;48.306;9.830;2022-10-26T09:33:21;17.10;99.90
21635;DHT22;10979;48.306;9.830;2022-10-26T09:41:30;17.00;99.90
21635;DHT22;10979;48.306;9.830;2022-10-26T09:44:10;17.00;99.90
21635;DHT22;10979;48.306;9.830;2022-10-26T09:46:55;16.90;99.90
21635;DHT22;10979;48.306;9.830;2022-10-26T09:49:27;17.30;99.90
21635;DHT22;10979;48.306;9.830;2022-10-26T09:51:57;17.20;99.90
21635;DHT22;10979;48.306;9.830;2022-10-26T09:54:23;17.00;99.90
21635;DHT22;10979;48.306;9.830;2022-10-26T09:56:52;16.90;99.90
21635;DHT22;10979;48.306;9.830;2022-10-26T09:59:21;16.80;99.90
21635;DHT22;10979;48.306;9.830;2022-10-26T10:01:47;16.70;99.90
21635;DHT22;10979;48.306;9.830;2022-10-26T10:06:39;16.80;99.90
21635;DHT22;10979;48.306;9.830;2022-10-26T10:09:16;16.70;99.90
21635;DHT22;10979;48.306;9.830;2022-10-26T10:14:40;16.70;99.90
21635;DHT22;10979;48.306;9.830;2022-10-26T10:17:20;16.70;99.90
21635;DHT22;10979;48.306;9.830;2022-10-26T10:19:47;16.80;99.90
21635;DHT22;10979;48.306;9.830;2022-10-26T10:25:02;16.80;99.90
21635;DHT22;10979;48.306;9.830;2022-10-26T10:27:29;17.20;99.90
21635;DHT22;10979;48.306;9.830;2022-10-26T10:29:56;17.20;99.90
21635;DHT22;10979;48.306;9.830;2022-10-26T10:32:24;17.30;99.90
21635;DHT22;10979;48.306;9.830;2022-10-26T10:34:54;17.20;99.90
21635;DHT22;10979;48.306;9.830;2022-10-26T10:39:57;17.40;99.90
21635;DHT22;10979;48.306;9.830;2022-10-26T10:42:28;17.50;99.90
21635;DHT22;10979;48.306;9.830;2022-10-26T10:44:56;17.50;99.90
21635;DHT22;10979;48.306;9.830;2022-10-26T10:47:27;17.40;99.90
21635;DHT22;10979;48.306;9.830;2022-10-26T10:52:26;17.50;99.90
21635;DHT22;10979;48.306;9.830;2022-10-26T10:55:06;17.40;99.90
21635;DHT22;10979;48.306;9.830;2022-10-26T11:00:22;17.40;99.90
21635;DHT22;10979;48.306;9.830;2022-10-26T11:02:58;17.50;99.90
21635;DHT22;10979;48.306;9.830;2022-10-26T11:08:19;17.90;99.90
21635;DHT22;10979;48.306;9.830;2022-10-26T11:11:08;18.20;99.90
21635;DHT22;10979;48.306;9.830;2022-10-26T11:13:43;18.40;99.90
21635;DHT22;10979;48.306;9.830;2022-10-26T11:16:15;18.50;99.90
21635;DHT22;10979;48.306;9.830;2022-10-26T11:18:55;18.50;99.90
21635;DHT22;10979;48.306;9.830;2022-10-26T11:21:40;18.50;99.90
21635;DHT22;10979;48.306;9.830;2022-10-26T11:26:58;18.70;99.90
21635;DHT22;10979;48.306;9.830;2022-10-26T11:29:41;18.50;99.90
21635;DHT22;10979;48.306;9.830;2022-10-26T11:32:29;18.10;99.90
21635;DHT22;10979;48.306;9.830;2022-10-26T11:35:09;18.50;99.90
21635;DHT22;10979;48.306;9.830;2022-10-26T11:37:40;18.70;99.90
21635;DHT22;10979;48.306;9.830;2022-10-26T11:40:28;18.80;99.90
21635;DHT22;10979;48.306;9.830;2022-10-26T11:47:52;18.30;99.90
21635;DHT22;10979;48.306;9.830;2022-10-26T11:50:29;18.10;99.90
21635;DHT22;10979;48.306;9.830;2022-10-26T11:53:21;18.00;99.90
21635;DHT22;10979;48.306;9.830;2022-10-26T11:55:53;18.00;99.90
21635;DHT22;10979;48.306;9.830;2022-10-26T11:58:25;17.90;99.90
21635;DHT22;10979;48.306;9.830;2022-10-26T12:00:59;17.90;99.90
21635;DHT22;10979;48.306;9.830;2022-10-26T12:03:27;17.90;99.90
21635;DHT22;10979;48.306;9.830;2022-10-26T12:05:55;17.90;99.90
21635;DHT22;10979;48.306;9.830;2022-10-26T12:08:26;18.00;99.90
21635;DHT22;10979;48.306;9.830;2022-10-26T12:13:53;18.60;99.90
21635;DHT22;10979;48.306;9.830;2022-10-26T12:21:45;18.90;99.90
21635;DHT22;10979;48.306;9.830;2022-10-26T12:24:42;19.20;99.90
21635;DHT22;10979;48.306;9.830;2022-10-26T12:27:49;19.50;99.90
21635;DHT22;10979;48.306;9.830;2022-10-26T12:30:29;19.80;99.90
21635;DHT22;10979;48.306;9.830;2022-10-26T12:33:28;20.10;99.90
21635;DHT22;10979;48.306;9.830;2022-10-26T12:35:54;20.20;99.90
21635;DHT22;10979;48.306;9.830;2022-10-26T12:38:53;20.40;99.90
21635;DHT22;10979;48.306;9.830;2022-10-26T12:41:21;20.70;99.90
21635;DHT22;10979;48.306;9.830;2022-10-26T12:43:46;20.50;99.90
21635;DHT22;10979;48.306;9.830;2022-10-26T13:07:11;19.70;99.90
21635;DHT22;10979;48.306;9.830;2022-10-26T13:09:44;19.50;99.90
21635;DHT22;10979;48.306;9.830;2022-10-26T13:12:10;19.20;99.90
21635;DHT22;10979;48.306;9.830;2022-10-26T13:14:40;19.00;99.90
21635;DHT22;10979;48.306;9.830;2022-10-26T13:17:32;18.90;99.90
21635;DHT22;10979;48.306;9.830;2022-10-26T13:20:00;19.10;99.90
21635;DHT22;10979;48.306;9.830;2022-10-26T13:22:27;19.20;99.90
21635;DHT22;10979;48.306;9.830;2022-10-26T13:24:59;19.30;99.90
21635;DHT22;10979;48.306;9.830;2022-10-26T13:32:38;19.40;99.90
21635;DHT22;10979;48.306;9.830;2022-10-26T13:35:05;19.50;99.90
21635;DHT22;10979;48.306;9.830;2022-10-26T13:37:36;19.70;99.90
21635;DHT22;10979;48.306;9.830;2022-10-26T13:40:06;19.80;99.90
21635;DHT22;10979;48.306;9.830;2022-10-26T13:43:01;19.90;99.90
21635;DHT22;10979;48.306;9.830;2022-10-26T13:45:46;19.80;99.90
21635;DHT22;10979;48.306;9.830;2022-10-26T13:50:59;19.40;99.90
21635;DHT22;10979;48.306;9.830;2022-10-26T13:53:53;19.10;99.90
21635;DHT22;10979;48.306;9.830;2022-10-26T13:56:36;18.90;99.90
21635;DHT22;10979;48.306;9.830;2022-10-26T13:59:04;18.70;99.90
21635;DHT22;10979;48.306;9.830;2022-10-26T14:01:33;18.70;99.90
21635;DHT22;10979;48.306;9.830;2022-10-26T14:03:59;18.70;99.90
21635;DHT22;10979;48.306;9.830;2022-10-26T14:06:38;18.80;99.90
21635;DHT22;10979;48.306;9.830;2022-10-26T14:09:14;19.20;99.90
21635;DHT22;10979;48.306;9.830;2022-10-26T14:11:48;19.50;99.90
21635;DHT22;10979;48.306;9.830;2022-10-26T14:14:38;19.80;99.90
21635;DHT22;10979;48.306;9.830;2022-10-26T14:17:04;19.80;99.90
21635;DHT22;10979;48.306;9.830;2022-10-26T14:21:57;19.50;99.90
21635;DHT22;10979;48.306;9.830;2022-10-26T14:24:28;19.10;99.90
21635;DHT22;10979;48.306;9.830;2022-10-26T14:26:54;19.10;99.90
21635;DHT22;10979;48.306;9.830;2022-10-26T14:29:23;19.10;99.90
21635;DHT22;10979;48.306;9.830;2022-10-26T14:31:49;19.10;99.90
21635;DHT22;10979;48.306;9.830;2022-10-26T14:34:16;19.00;99.90
21635;DHT22;10979;48.306;9.830;2022-10-26T14:36:49;19.00;99.90
21635;DHT22;10979;48.306;9.830;2022-10-26T14:41:53;18.70;99.90
21635;DHT22;10979;48.306;9.830;2022-10-26T14:44:21;18.70;99.90
21635;DHT22;10979;48.306;9.830;2022-10-26T14:46:48;18.70;99.90
21635;DHT22;10979;48.306;9.830;2022-10-26T14:49:25;18.60;99.90
21635;DHT22;10979;48.306;9.830;2022-10-26T14:51:58;18.50;99.90
21635;DHT22;10979;48.306;9.830;2022-10-26T14:54:27;18.40;99.90
21635;DHT22;10979;48.306;9.830;2022-10-26T14:56:53;18.40;99.90
21635;DHT22;10979;48.306;9.830;2022-10-26T14:59:30;18.30;99.90
21635;DHT22;10979;48.306;9.830;2022-10-26T15:04:37;18.40;99.90
21635;DHT22;10979;48.306;9.830;2022-10-26T15:09:40;18.50;99.90
21635;DHT22;10979;48.306;9.830;2022-10-26T15:12:06;18.40;99.90
21635;DHT22;10979;48.306;9.830;2022-10-26T15:14:42;18.20;99.90
21635;DHT22;10979;48.306;9.830;2022-10-26T15:17:20;18.10;99.90
21635;DHT22;10979;48.306;9.830;2022-10-26T15:19:46;17.90;99.90
21635;DHT22;10979;48.306;9.830;2022-10-26T15:22:22;17.90;99.90
21635;DHT22;10979;48.306;9.830;2022-10-26T15:24:54;17.80;99.90
21635;DHT22;10979;48.306;9.830;2022-10-26T15:27:21;17.70;99.90
21635;DHT22;10979;48.306;9.830;2022-10-26T15:29:51;17.70;99.90
21635;DHT22;10979;48.306;9.830;2022-10-26T15:32:32;17.60;99.90
21635;DHT22;10979;48.306;9.830;2022-10-26T15:35:17;17.50;99.90
21635;DHT22;10979;48.306;9.830;2022-10-26T15:37:50;17.60;99.90
21635;DHT22;10979;48.306;9.830;2022-10-26T15:40:16;17.60;99.90
21635;DHT22;10979;48.306;9.830;2022-10-26T15:42:42;17.20;99.90
21635;DHT22;10979;48.306;9.830;2022-10-26T15:47:41;17.00;99.90
21635;DHT22;10979;48.306;9.830;2022-10-26T15:50:27;16.80;99.90
21635;DHT22;10979;48.306;9.830;2022-10-26T15:52:58;16.70;99.90
21635;DHT22;10979;48.306;9.830;2022-10-26T15:55:24;16.60;99.90
21635;DHT22;10979;48.306;9.830;2022-10-26T15:57:50;16.40;99.90
21635;DHT22;10979;48.306;9.830;2022-10-26T16:00:16;16.30;99.90
21635;DHT22;10979;48.306;9.830;2022-10-26T16:02:43;16.00;99.90
21635;DHT22;10979;48.306;9.830;2022-10-26T16:05:10;15.90;99.90
21635;DHT22;10979;48.306;9.830;2022-10-26T16:07:37;15.70;99.90
21635;DHT22;10979;48.306;9.830;2022-10-26T16:10:04;15.50;99.90
21635;DHT22;10979;48.306;9.830;2022-10-26T16:12:30;15.40;99.90
21635;DHT22;10979;48.306;9.830;2022-10-26T16:14:55;15.30;99.90
21635;DHT22;10979;48.306;9.830;2022-10-26T16:17:21;15.30;99.90
21635;DHT22;10979;48.306;9.830;2022-10-26T16:19:46;15.00;99.90
21635;DHT22;10979;48.306;9.830;2022-10-26T16:22:12;14.90;99.90
21635;DHT22;10979;48.306;9.830;2022-10-26T16:24:37;14.70;99.90
21635;DHT22;10979;48.306;9.830;2022-10-26T16:27:03;14.50;99.90
21635;DHT22;10979;48.306;9.830;2022-10-26T16:29:29;14.40;99.90
21635;DHT22;10979;48.306;9.830;2022-10-26T16:31:55;14.30;99.90
21635;DHT22;10979;48.306;9.830;2022-10-26T16:34:20;14.20;99.90
21635;DHT22;10979;48.306;9.830;2022-10-26T16:36:46;14.00;99.90
21635;DHT22;10979;48.306;9.830;2022-10-26T16:39:11;13.90;99.90
21635;DHT22;10979;48.306;9.830;2022-10-26T16:41:37;13.80;99.90
21635;DHT22;10979;48.306;9.830;2022-10-26T16:44:03;13.70;99.90
21635;DHT22;10979;48.306;9.830;2022-10-26T16:46:28;13.70;99.90
21635;DHT22;10979;48.306;9.830;2022-10-26T16:48:54;13.50;99.90
21635;DHT22;10979;48.306;9.830;2022-10-26T16:51:25;13.50;99.90
21635;DHT22;10979;48.306;9.830;2022-10-26T16:53:53;13.30;99.90
21635;DHT22;10979;48.306;9.830;2022-10-26T16:56:25;13.20;99.90
21635;DHT22;10979;48.306;9.830;2022-10-26T16:58:51;13.20;99.90
21635;DHT22;10979;48.306;9.830;2022-10-26T17:01:18;13.10;99.90
21635;DHT22;10979;48.306;9.830;2022-10-26T17:03:45;13.00;99.90
21635;DHT22;10979;48.306;9.830;2022-10-26T17:06:10;12.90;99.90
21635;DHT22;10979;48.306;9.830;2022-10-26T17:08:37;12.80;99.90
21635;DHT22;10979;48.306;9.830;2022-10-26T17:11:15;12.70;99.90
21635;DHT22;10979;48.306;9.830;2022-10-26T17:13:42;12.70;99.90
21635;DHT22;10979;48.306;9.830;2022-10-26T17:16:16;12.70;99.90
21635;DHT22;10979;48.306;9.830;2022-10-26T17:18:42;12.70;99.90
21635;DHT22;10979;48.306;9.830;2022-10-26T17:21:10;12.60;99.90
21635;DHT22;10979;48.306;9.830;2022-10-26T17:23:36;12.40;99.90
21635;DHT22;10979;48.306;9.830;2022-10-26T17:26:03;12.20;99.90
21635;DHT22;10979;48.306;9.830;2022-10-26T17:28:30;12.30;99.90
21635;DHT22;10979;48.306;9.830;2022-10-26T17:31:07;12.20;99.90
21635;DHT22;10979;48.306;9.830;2022-10-26T17:33:35;12.10;99.90
21635;DHT22;10979;48.306;9.830;2022-10-26T17:36:02;12.00;99.90
21635;DHT22;10979;48.306;9.830;2022-10-26T17:38:33;11.90;99.90
21635;DHT22;10979;48.306;9.830;2022-10-26T17:41:00;11.90;99.90
21635;DHT22;10979;48.306;9.830;2022-10-26T17:43:29;11.90;99.90
21635;DHT22;10979;48.306;9.830;2022-10-26T17:46:00;11.90;99.90
21635;DHT22;10979;48.306;9.830;2022-10-26T17:48:27;11.70;99.90
21635;DHT22;10979;48.306;9.830;2022-10-26T17:50:53;11.60;99.90
21635;DHT22;10979;48.306;9.830;2022-10-26T17:53:19;11.50;99.90
21635;DHT22;10979;48.306;9.830;2022-10-26T17:55:45;11.40;99.90
21635;DHT22;10979;48.306;9.830;2022-10-26T17:58:10;11.30;99.90
21635;DHT22;10979;48.306;9.830;2022-10-26T18:00:36;11.30;99.90
21635;DHT22;10979;48.306;9.830;2022-10-26T18:03:01;11.40;99.90
21635;DHT22;10979;48.306;9.830;2022-10-26T18:05:27;11.30;99.90